createdAt,value
2022-09-15T00:02:32.819Z,71.88
2022-09-15T00:07:36.746Z,71.96
2022-09-15T00:12:40.109Z,71.66
2022-09-15T00:17:50.693Z,72.36
2022-09-15T00:22:54.049Z,72.50
2022-09-15T00:27:58.119Z,71.82
2022-09-15T00:33:03.126Z,71.85
2022-09-15T00:38:07.647Z,72.38
2022-09-15T00:43:12.419Z,72.65
2022-09-15T00:48:21.178Z,71.89
2022-09-15T00:53:26.305Z,72.17
2022-09-15T00:58:37.442Z,73.04
2022-09-15T01:03:42.304Z,73.02
2022-09-15T01:08:50.116Z,72.85
2022-09-15T01:13:53.562Z,73.20
2022-09-15T01:19:15.689Z,72.78
2022-09-15T01:24:42.730Z,74.34
2022-09-15T01:30:07.741Z,73.83
2022-09-15T01:35:22.763Z,73.34
2022-09-15T01:40:30.541Z,73.22
2022-09-15T01:45:37.825Z,73.03
2022-09-15T01:50:46.533Z,73.83
2022-09-15T01:55:56.030Z,73.32
2022-09-15T02:01:08.060Z,73.26
2022-09-15T02:06:17.017Z,72.89
2022-09-15T02:11:28.253Z,73.34
2022-09-15T02:16:37.292Z,73.13
2022-09-15T02:21:54.128Z,73.18
2022-09-15T02:26:59.817Z,73.23
2022-09-15T02:32:07.554Z,73.08
2022-09-15T02:37:13.613Z,73.21
2022-09-15T02:42:24.698Z,73.26
2022-09-15T02:47:30.676Z,72.93
2022-09-15T02:52:34.096Z,73.39
2022-09-15T02:57:38.350Z,73.41
2022-09-15T03:02:45.577Z,73.04
2022-09-15T03:07:49.343Z,73.01
2022-09-15T03:12:54.365Z,72.78
2022-09-15T03:17:59.852Z,72.76
2022-09-15T03:23:03.478Z,72.95
2022-09-15T03:28:07.538Z,72.94
2022-09-15T03:33:12.224Z,73.18
2022-09-15T03:38:16.280Z,72.58
2022-09-15T03:43:19.995Z,72.96
2022-09-15T03:48:26.142Z,73.12
2022-09-15T03:53:29.763Z,73.05
2022-09-15T03:58:33.761Z,73.72
2022-09-15T04:03:44.101Z,73.55
2022-09-15T04:08:50.003Z,73.59
2022-09-15T04:13:54.191Z,73.31
2022-09-15T04:18:59.762Z,73.54
2022-09-15T04:24:04.827Z,73.53
2022-09-15T04:29:15.026Z,73.20
2022-09-15T04:34:19.881Z,73.30
2022-09-15T04:39:23.945Z,73.81
2022-09-15T04:44:27.282Z,73.12
2022-09-15T04:49:32.801Z,73.32
2022-09-15T04:54:36.285Z,72.40
2022-09-15T04:59:40.620Z,71.93
2022-09-15T05:04:45.820Z,71.81
2022-09-15T05:09:49.955Z,71.92
2022-09-15T05:14:53.309Z,71.82
2022-09-15T05:19:58.904Z,72.35
2022-09-15T05:25:02.255Z,72.33
2022-09-15T05:30:36.034Z,72.18
2022-09-15T05:35:35.128Z,72.14
2022-09-15T05:40:39.214Z,71.62
2022-09-15T05:45:43.589Z,71.92
2022-09-15T05:50:52.900Z,71.64
2022-09-15T05:55:58.209Z,71.58
2022-09-15T06:01:07.832Z,71.37
2022-09-15T06:06:14.170Z,71.00
2022-09-15T06:11:19.924Z,71.01
2022-09-15T06:16:25.454Z,71.39
2022-09-15T06:21:33.277Z,71.61
2022-09-15T06:26:38.091Z,71.28
2022-09-15T06:31:42.509Z,71.49
2022-09-15T06:36:48.079Z,70.84
2022-09-15T06:42:02.152Z,70.99
2022-09-15T06:47:08.081Z,71.10
2022-09-15T06:52:13.591Z,70.77
2022-09-15T06:57:17.657Z,70.64
2022-09-15T07:02:21.052Z,70.93
2022-09-15T07:07:26.220Z,70.41
2022-09-15T07:12:29.621Z,70.71
2022-09-15T07:17:33.991Z,70.37
2022-09-15T07:22:38.734Z,70.20
2022-09-15T07:27:42.935Z,70.02
2022-09-15T07:32:46.328Z,69.83
2022-09-15T07:37:52.755Z,69.94
2022-09-15T07:42:56.121Z,69.80
2022-09-15T07:48:00.271Z,70.12
2022-09-15T07:53:04.984Z,69.86
2022-09-15T07:58:09.115Z,69.66
2022-09-15T08:03:12.605Z,69.52
2022-09-15T08:08:17.315Z,69.56
2022-09-15T08:13:20.388Z,68.53
2022-09-15T08:18:24.505Z,68.44
2022-09-15T08:23:29.368Z,68.05
2022-09-15T08:28:33.527Z,67.40
2022-09-15T08:33:38.957Z,66.83
2022-09-15T08:38:47.848Z,66.11
2022-09-15T08:43:56.144Z,66.33
2022-09-15T08:49:07.265Z,66.37
2022-09-15T08:54:19.953Z,66.19
2022-09-15T08:59:24.258Z,66.45
2022-09-15T09:05:08.528Z,66.60
2022-09-15T09:10:19.411Z,66.85
2022-09-15T09:15:34.166Z,66.66
2022-09-15T09:20:42.871Z,66.56
2022-09-15T09:25:49.932Z,66.40
2022-09-15T09:30:55.004Z,66.80
2022-09-15T09:36:03.583Z,66.25
2022-09-15T09:41:14.489Z,65.99
2022-09-15T09:46:21.123Z,66.19
2022-09-15T09:51:34.372Z,66.07
2022-09-15T09:56:41.184Z,65.44
2022-09-15T10:02:18.628Z,64.61
2022-09-15T10:07:24.785Z,64.08
2022-09-15T10:12:33.309Z,62.86
2022-09-15T10:17:44.444Z,61.88
2022-09-15T10:22:48.039Z,61.49
2022-09-15T10:28:13.170Z,60.48
2022-09-15T10:33:23.875Z,60.59
2022-09-15T10:38:34.928Z,60.99
2022-09-15T10:43:48.172Z,61.76
2022-09-15T10:49:06.826Z,64.10
2022-09-15T10:54:34.308Z,63.52
2022-09-15T10:59:48.128Z,63.20
2022-09-15T11:05:20.527Z,62.87
2022-09-15T11:10:36.289Z,62.82
2022-09-15T11:15:55.555Z,62.25
2022-09-15T11:21:25.177Z,63.45
2022-09-15T11:26:35.950Z,63.83
2022-09-15T11:31:44.698Z,64.07
2022-09-15T11:36:54.159Z,64.32
2022-09-15T11:42:05.536Z,63.94
2022-09-15T11:47:21.779Z,63.75
2022-09-15T11:52:45.982Z,63.96
2022-09-15T11:57:56.471Z,63.85
2022-09-15T12:03:17.641Z,63.47
2022-09-15T12:08:26.196Z,63.39
2022-09-15T12:13:31.408Z,63.77
2022-09-15T12:18:46.015Z,63.73
2022-09-15T12:23:57.996Z,64.25
2022-09-15T12:29:03.242Z,63.28
2022-09-15T12:34:37.278Z,62.75
2022-09-15T12:39:44.538Z,62.27
2022-09-15T12:44:52.350Z,62.18
2022-09-15T12:50:01.914Z,61.87
2022-09-15T12:55:07.622Z,60.75
2022-09-15T13:00:49.966Z,60.27
2022-09-15T13:06:22.423Z,61.04
2022-09-15T13:11:39.067Z,60.24
2022-09-15T13:16:52.602Z,60.70
2022-09-15T13:22:05.752Z,59.93
2022-09-15T13:27:10.888Z,60.16
2022-09-15T13:32:26.836Z,60.34
2022-09-15T13:38:16.912Z,61.10
2022-09-15T13:43:45.488Z,61.46
2022-09-15T13:49:09.179Z,61.39
2022-09-15T13:54:19.226Z,61.33
2022-09-15T13:59:27.883Z,61.73
2022-09-15T14:04:32.750Z,62.21
2022-09-15T14:09:48.427Z,61.66
2022-09-15T14:14:55.706Z,61.54
2022-09-15T14:20:01.644Z,61.27
2022-09-15T14:25:16.729Z,60.68
2022-09-15T14:30:24.620Z,60.95
2022-09-15T14:35:32.226Z,61.01
2022-09-15T14:40:40.127Z,61.39
2022-09-15T14:45:57.360Z,61.98
2022-09-15T14:51:11.062Z,61.41
2022-09-15T14:56:21.522Z,61.36
2022-09-15T15:01:33.774Z,61.66
2022-09-15T15:06:43.473Z,61.25
2022-09-15T15:11:52.549Z,61.39
2022-09-15T15:17:01.087Z,62.71
2022-09-15T15:22:18.445Z,62.89
2022-09-15T15:27:44.607Z,63.16
2022-09-15T15:32:48.399Z,63.82
2022-09-15T15:38:03.599Z,64.48
2022-09-15T15:43:19.732Z,64.41
2022-09-15T15:48:24.044Z,65.28
2022-09-15T15:53:28.294Z,65.71
2022-09-15T15:58:33.878Z,66.11
2022-09-15T16:03:37.473Z,66.57
2022-09-15T16:08:44.162Z,67.02
2022-09-15T16:13:49.320Z,67.83
2022-09-15T16:18:53.726Z,67.81
2022-09-15T16:23:57.281Z,67.98
2022-09-15T16:29:03.081Z,68.68
2022-09-15T16:34:07.262Z,68.62
2022-09-15T16:39:11.508Z,69.04
2022-09-15T16:44:20.776Z,69.75
2022-09-15T16:49:25.039Z,69.64
2022-09-15T16:54:28.711Z,70.06
2022-09-15T16:59:37.329Z,69.96
2022-09-15T17:04:40.691Z,70.39
2022-09-15T17:09:45.160Z,70.75
2022-09-15T17:14:50.146Z,71.12
2022-09-15T17:19:54.268Z,71.59
2022-09-15T17:24:57.713Z,71.72
2022-09-15T17:30:03.438Z,72.01
2022-09-15T17:35:16.707Z,72.82
2022-09-15T17:40:22.445Z,72.51
2022-09-15T17:45:31.687Z,72.44
2022-09-15T17:50:38.879Z,72.42
2022-09-15T17:55:43.933Z,72.56
2022-09-15T18:00:50.952Z,72.62
2022-09-15T18:05:56.380Z,72.78
2022-09-15T18:11:01.662Z,72.48
2022-09-15T18:16:10.161Z,72.79
2022-09-15T18:21:27.691Z,72.62
2022-09-15T18:26:32.267Z,72.44
2022-09-15T18:31:37.924Z,72.76
2022-09-15T18:36:42.066Z,72.41
2022-09-15T18:41:46.377Z,72.52
2022-09-15T18:46:52.115Z,72.26
2022-09-15T18:51:55.556Z,72.81
2022-09-15T18:56:59.853Z,72.68
2022-09-15T19:02:06.080Z,73.25
2022-09-15T19:07:09.895Z,73.28
2022-09-15T19:12:14.080Z,72.76
2022-09-15T19:17:19.742Z,73.16
2022-09-15T19:22:23.173Z,72.68
2022-09-15T19:27:27.511Z,72.67
2022-09-15T19:32:34.331Z,72.79
2022-09-15T19:37:40.134Z,72.48
2022-09-15T19:42:45.114Z,72.50
2022-09-15T19:47:50.689Z,72.68
2022-09-15T19:52:58.829Z,72.64
2022-09-15T19:58:03.974Z,72.24
2022-09-15T20:03:08.743Z,72.13
2022-09-15T20:08:12.146Z,72.32
2022-09-15T20:13:16.889Z,72.29
2022-09-15T20:18:22.352Z,72.80
2022-09-15T20:23:25.718Z,72.58
2022-09-15T20:28:30.372Z,73.39
2022-09-15T20:33:36.566Z,73.11
2022-09-15T20:38:41.646Z,73.59
2022-09-15T20:43:45.561Z,73.51
2022-09-15T20:48:52.657Z,74.43
2022-09-15T20:53:57.520Z,73.89
2022-09-15T20:59:02.313Z,74.27
2022-09-15T21:04:08.137Z,73.77
2022-09-15T21:09:11.526Z,74.00
2022-09-15T21:14:15.060Z,73.45
2022-09-15T21:19:20.542Z,72.90
2022-09-15T21:24:24.043Z,72.85
2022-09-15T21:29:28.595Z,72.63
2022-09-15T21:34:33.370Z,72.84
2022-09-15T21:39:37.555Z,72.88
2022-09-15T21:44:40.866Z,73.14
2022-09-15T21:49:46.372Z,72.70
2022-09-15T21:54:49.696Z,72.91
2022-09-15T21:59:53.882Z,72.74
2022-09-15T22:04:59.786Z,72.58
2022-09-15T22:10:03.840Z,72.76
2022-09-15T22:15:08.319Z,72.47
2022-09-15T22:20:13.847Z,72.78
2022-09-15T22:25:21.679Z,72.20
2022-09-15T22:30:26.470Z,71.85
2022-09-15T22:35:32.287Z,72.18
2022-09-15T22:40:36.403Z,71.90
2022-09-15T22:45:40.613Z,72.14
2022-09-15T22:50:47.299Z,72.91
2022-09-15T22:55:52.449Z,72.08
2022-09-15T23:00:56.604Z,72.15
2022-09-15T23:06:02.867Z,72.31
2022-09-15T23:11:08.960Z,73.02
2022-09-15T23:16:13.929Z,72.59
2022-09-15T23:21:19.591Z,71.57
2022-09-15T23:26:25.439Z,72.48
2022-09-15T23:31:30.040Z,72.50
2022-09-15T23:36:35.837Z,72.44
2022-09-15T23:41:40.144Z,71.85
2022-09-15T23:46:44.245Z,71.98
2022-09-15T23:51:50.676Z,72.66
2022-09-15T23:56:55.269Z,72.27
